sensor_id;sensor_type;location;lat;lon;timestamp;pressure;altitude;pressure_sealevel;temperature;humidity
24302;BME280;12421;49.732;20.078;2023-09-30T00:38:35;97326.73;;;9.09;85.86
24302;BME280;12421;49.732;20.078;2023-09-30T00:49:31;97319.21;;;9.21;86.68
24302;BME280;12421;49.732;20.078;2023-09-30T01:10:34;97310.09;;;9.15;86.04
24302;BME280;12421;49.732;20.078;2023-09-30T01:20:38;97305.00;;;9.09;85.76
24302;BME280;12421;49.732;20.078;2023-09-30T01:30:41;97299.76;;;9.08;86.24
24302;BME280;12421;49.732;20.078;2023-09-30T01:40:49;97293.96;;;9.02;86.64
24302;BME280;12421;49.732;20.078;2023-09-30T01:50:52;97284.34;;;9.05;86.80
24302;BME280;12421;49.732;20.078;2023-09-30T02:01:02;97281.19;;;8.96;86.35
24302;BME280;12421;49.732;20.078;2023-09-30T02:11:05;97279.42;;;8.89;86.65
24302;BME280;12421;49.732;20.078;2023-09-30T02:21:08;97281.52;;;8.86;86.92
24302;BME280;12421;49.732;20.078;2023-09-30T02:31:12;97285.17;;;8.77;86.72
24302;BME280;12421;49.732;20.078;2023-09-30T02:41:16;97279.58;;;8.79;86.87
24302;BME280;12421;49.732;20.078;2023-09-30T02:51:19;97274.67;;;8.78;86.21
24302;BME280;12421;49.732;20.078;2023-09-30T03:01:23;97273.10;;;8.75;86.16
24302;BME280;12421;49.732;20.078;2023-09-30T03:11:27;97273.80;;;8.75;86.50
24302;BME280;12421;49.732;20.078;2023-09-30T03:21:30;97269.06;;;8.70;86.61
24302;BME280;12421;49.732;20.078;2023-09-30T03:31:33;97265.91;;;8.69;86.55
24302;BME280;12421;49.732;20.078;2023-09-30T03:41:37;97257.86;;;8.72;86.97
24302;BME280;12421;49.732;20.078;2023-09-30T03:51:41;97258.59;;;8.84;87.17
24302;BME280;12421;49.732;20.078;2023-09-30T04:01:44;97249.48;;;8.99;87.28
24302;BME280;12421;49.732;20.078;2023-09-30T04:11:47;97247.21;;;9.16;87.21
24302;BME280;12421;49.732;20.078;2023-09-30T04:21:51;97245.09;;;9.33;87.21
24302;BME280;12421;49.732;20.078;2023-09-30T04:31:54;97241.57;;;9.52;86.89
24302;BME280;12421;49.732;20.078;2023-09-30T04:41:57;97241.90;;;9.66;86.82
24302;BME280;12421;49.732;20.078;2023-09-30T04:52:04;97240.07;;;9.91;87.09
24302;BME280;12421;49.732;20.078;2023-09-30T05:02:10;97245.59;;;10.21;87.20
24302;BME280;12421;49.732;20.078;2023-09-30T05:12:14;97259.38;;;10.36;87.53
24302;BME280;12421;49.732;20.078;2023-09-30T05:22:19;97271.92;;;10.57;87.83
24302;BME280;12421;49.732;20.078;2023-09-30T05:32:26;97273.69;;;10.83;88.47
24302;BME280;12421;49.732;20.078;2023-09-30T05:42:29;97282.63;;;11.12;88.52
24302;BME280;12421;49.732;20.078;2023-09-30T05:52:33;97288.35;;;11.43;89.00
24302;BME280;12421;49.732;20.078;2023-09-30T06:02:36;97284.57;;;11.75;89.32
24302;BME280;12421;49.732;20.078;2023-09-30T06:12:41;97289.73;;;12.20;89.62
24302;BME280;12421;49.732;20.078;2023-09-30T06:22:45;97296.35;;;12.54;89.33
24302;BME280;12421;49.732;20.078;2023-09-30T06:32:48;97310.35;;;12.99;90.03
24302;BME280;12421;49.732;20.078;2023-09-30T06:42:52;97317.88;;;13.40;88.79
24302;BME280;12421;49.732;20.078;2023-09-30T06:52:55;97322.54;;;13.78;88.75
24302;BME280;12421;49.732;20.078;2023-09-30T07:02:59;97333.66;;;14.18;88.86
24302;BME280;12421;49.732;20.078;2023-09-30T07:13:03;97347.44;;;14.56;88.22
24302;BME280;12421;49.732;20.078;2023-09-30T07:23:07;97358.97;;;14.88;88.02
24302;BME280;12421;49.732;20.078;2023-09-30T07:33:21;97367.11;;;15.36;88.93
24302;BME280;12421;49.732;20.078;2023-09-30T07:43:25;97371.33;;;15.68;87.83
24302;BME280;12421;49.732;20.078;2023-09-30T07:53:28;97385.55;;;15.95;86.81
24302;BME280;12421;49.732;20.078;2023-09-30T08:03:31;97388.31;;;16.18;85.81
24302;BME280;12421;49.732;20.078;2023-09-30T08:13:35;97400.91;;;16.38;84.98
24302;BME280;12421;49.732;20.078;2023-09-30T08:23:38;97408.64;;;16.48;84.70
24302;BME280;12421;49.732;20.078;2023-09-30T08:33:41;97406.56;;;16.79;84.24
24302;BME280;12421;49.732;20.078;2023-09-30T08:43:47;97402.59;;;17.13;82.48
24302;BME280;12421;49.732;20.078;2023-09-30T08:53:52;97401.08;;;17.46;81.33
24302;BME280;12421;49.732;20.078;2023-09-30T09:03:56;97403.77;;;17.63;81.88
24302;BME280;12421;49.732;20.078;2023-09-30T09:14:00;97403.73;;;17.86;82.25
24302;BME280;12421;49.732;20.078;2023-09-30T09:24:03;97395.16;;;18.19;82.08
24302;BME280;12421;49.732;20.078;2023-09-30T09:34:14;97387.69;;;18.51;80.64
24302;BME280;12421;49.732;20.078;2023-09-30T09:44:21;97387.55;;;18.70;80.50
24302;BME280;12421;49.732;20.078;2023-09-30T09:54:25;97380.98;;;18.89;79.79
24302;BME280;12421;49.732;20.078;2023-09-30T10:04:30;97386.44;;;18.91;79.46
24302;BME280;12421;49.732;20.078;2023-09-30T10:14:34;97386.86;;;19.08;79.09
24302;BME280;12421;49.732;20.078;2023-09-30T10:24:38;97384.54;;;19.27;78.61
24302;BME280;12421;49.732;20.078;2023-09-30T10:34:48;97381.86;;;19.60;77.41
24302;BME280;12421;49.732;20.078;2023-09-30T10:44:52;97379.73;;;19.60;76.15
24302;BME280;12421;49.732;20.078;2023-09-30T10:55:02;97381.77;;;19.72;77.30
24302;BME280;12421;49.732;20.078;2023-09-30T11:05:09;97374.00;;;19.79;77.48
24302;BME280;12421;49.732;20.078;2023-09-30T11:15:13;97372.27;;;19.69;77.23
24302;BME280;12421;49.732;20.078;2023-09-30T11:25:18;97379.38;;;19.51;77.76
24302;BME280;12421;49.732;20.078;2023-09-30T11:35:23;97378.54;;;19.36;77.86
24302;BME280;12421;49.732;20.078;2023-09-30T11:45:26;97383.70;;;19.26;77.96
24302;BME280;12421;49.732;20.078;2023-09-30T11:55:30;97391.92;;;19.11;78.46
24302;BME280;12421;49.732;20.078;2023-09-30T12:05:34;97392.63;;;18.92;78.63
24302;BME280;12421;49.732;20.078;2023-09-30T12:15:39;97399.46;;;18.80;78.72
24302;BME280;12421;49.732;20.078;2023-09-30T12:25:43;97398.43;;;18.74;79.18
24302;BME280;12421;49.732;20.078;2023-09-30T12:35:50;97398.20;;;18.70;79.14
24302;BME280;12421;49.732;20.078;2023-09-30T12:45:54;97411.11;;;18.53;79.91
24302;BME280;12421;49.732;20.078;2023-09-30T12:55:58;97419.95;;;18.49;80.04
24302;BME280;12421;49.732;20.078;2023-09-30T13:06:02;97414.10;;;18.44;80.28
24302;BME280;12421;49.732;20.078;2023-09-30T13:16:06;97405.83;;;18.56;80.96
24302;BME280;12421;49.732;20.078;2023-09-30T13:26:10;97411.69;;;18.61;81.28
24302;BME280;12421;49.732;20.078;2023-09-30T13:36:13;97406.36;;;18.66;81.33
24302;BME280;12421;49.732;20.078;2023-09-30T13:46:16;97406.06;;;18.54;81.06
24302;BME280;12421;49.732;20.078;2023-09-30T13:56:21;97394.97;;;18.46;81.53
24302;BME280;12421;49.732;20.078;2023-09-30T14:06:25;97395.23;;;18.49;81.62
24302;BME280;12421;49.732;20.078;2023-09-30T14:16:29;97392.59;;;18.43;81.52
24302;BME280;12421;49.732;20.078;2023-09-30T14:26:34;97389.20;;;18.37;82.17
24302;BME280;12421;49.732;20.078;2023-09-30T14:36:37;97395.30;;;18.26;82.10
24302;BME280;12421;49.732;20.078;2023-09-30T14:46:44;97414.73;;;17.80;82.90
24302;BME280;12421;49.732;20.078;2023-09-30T14:56:48;97420.29;;;17.32;84.31
24302;BME280;12421;49.732;20.078;2023-09-30T15:06:51;97435.54;;;16.96;85.17
24302;BME280;12421;49.732;20.078;2023-09-30T15:16:55;97445.82;;;16.64;86.50
24302;BME280;12421;49.732;20.078;2023-09-30T15:26:59;97463.39;;;16.41;86.86
24302;BME280;12421;49.732;20.078;2023-09-30T15:37:02;97476.02;;;16.25;86.39
24302;BME280;12421;49.732;20.078;2023-09-30T15:47:07;97481.59;;;16.14;85.85
24302;BME280;12421;49.732;20.078;2023-09-30T15:57:11;97483.52;;;16.01;85.95
24302;BME280;12421;49.732;20.078;2023-09-30T16:07:15;97490.23;;;15.94;85.95
24302;BME280;12421;49.732;20.078;2023-09-30T16:17:18;97509.05;;;15.92;86.47
24302;BME280;12421;49.732;20.078;2023-09-30T16:27:22;97526.23;;;15.92;86.18
24302;BME280;12421;49.732;20.078;2023-09-30T16:37:26;97546.23;;;15.92;86.45
24302;BME280;12421;49.732;20.078;2023-09-30T16:47:29;97550.61;;;15.95;86.07
24302;BME280;12421;49.732;20.078;2023-09-30T16:57:33;97555.70;;;15.88;85.74
24302;BME280;12421;49.732;20.078;2023-09-30T17:07:36;97566.87;;;15.72;85.34
24302;BME280;12421;49.732;20.078;2023-09-30T17:17:39;97579.74;;;15.65;85.99
24302;BME280;12421;49.732;20.078;2023-09-30T17:27:43;97589.60;;;15.69;86.20
24302;BME280;12421;49.732;20.078;2023-09-30T17:37:49;97586.91;;;15.61;86.09
24302;BME280;12421;49.732;20.078;2023-09-30T17:47:52;97601.50;;;15.38;85.92
24302;BME280;12421;49.732;20.078;2023-09-30T17:57:55;97621.76;;;15.34;86.02
24302;BME280;12421;49.732;20.078;2023-09-30T18:08:00;97625.28;;;15.34;85.89
24302;BME280;12421;49.732;20.078;2023-09-30T18:18:04;97623.23;;;15.20;85.94
24302;BME280;12421;49.732;20.078;2023-09-30T18:28:15;97631.66;;;15.14;86.14
24302;BME280;12421;49.732;20.078;2023-09-30T18:38:19;97644.77;;;15.04;85.90
24302;BME280;12421;49.732;20.078;2023-09-30T18:48:24;97657.79;;;14.97;85.68
24302;BME280;12421;49.732;20.078;2023-09-30T18:58:28;97658.07;;;14.89;85.16
24302;BME280;12421;49.732;20.078;2023-09-30T19:08:32;97658.69;;;14.73;84.61
24302;BME280;12421;49.732;20.078;2023-09-30T19:18:35;97661.66;;;14.40;84.14
24302;BME280;12421;49.732;20.078;2023-09-30T19:28:43;97665.72;;;14.27;83.91
24302;BME280;12421;49.732;20.078;2023-09-30T19:38:47;97652.20;;;14.07;83.76
24302;BME280;12421;49.732;20.078;2023-09-30T19:48:51;97655.71;;;13.81;84.10
24302;BME280;12421;49.732;20.078;2023-09-30T19:58:55;97673.67;;;13.69;84.17
24302;BME280;12421;49.732;20.078;2023-09-30T20:08:59;97678.22;;;13.73;85.38
24302;BME280;12421;49.732;20.078;2023-09-30T20:19:03;97676.19;;;13.80;85.62
24302;BME280;12421;49.732;20.078;2023-09-30T20:29:06;97679.52;;;13.82;85.37
24302;BME280;12421;49.732;20.078;2023-09-30T20:39:11;97678.02;;;13.59;85.47
24302;BME280;12421;49.732;20.078;2023-09-30T20:49:16;97677.89;;;13.54;85.62
24302;BME280;12421;49.732;20.078;2023-09-30T20:59:22;97687.64;;;13.50;85.94
24302;BME280;12421;49.732;20.078;2023-09-30T21:09:26;97671.30;;;13.43;86.67
24302;BME280;12421;49.732;20.078;2023-09-30T21:19:29;97669.06;;;13.55;86.28
24302;BME280;12421;49.732;20.078;2023-09-30T21:29:32;97682.89;;;13.64;85.92
24302;BME280;12421;49.732;20.078;2023-09-30T21:39:35;97694.11;;;13.55;85.97
24302;BME280;12421;49.732;20.078;2023-09-30T21:49:39;97695.20;;;13.52;87.00
24302;BME280;12421;49.732;20.078;2023-09-30T21:59:42;97691.77;;;13.60;86.41
24302;BME280;12421;49.732;20.078;2023-09-30T22:09:46;97696.11;;;13.67;86.04
24302;BME280;12421;49.732;20.078;2023-09-30T22:19:49;97708.89;;;13.60;85.86
24302;BME280;12421;49.732;20.078;2023-09-30T22:29:52;97717.19;;;13.58;86.14
24302;BME280;12421;49.732;20.078;2023-09-30T22:39:55;97709.79;;;13.58;85.86
24302;BME280;12421;49.732;20.078;2023-09-30T22:49:59;97709.50;;;13.51;85.65
24302;BME280;12421;49.732;20.078;2023-09-30T23:00:02;97707.27;;;13.46;85.90
24302;BME280;12421;49.732;20.078;2023-09-30T23:10:12;97706.73;;;13.45;85.14
24302;BME280;12421;49.732;20.078;2023-09-30T23:20:17;97710.27;;;13.25;84.54
24302;BME280;12421;49.732;20.078;2023-09-30T23:30:24;97710.31;;;13.20;84.38
24302;BME280;12421;49.732;20.078;2023-09-30T23:40:33;97711.52;;;13.01;83.73
24302;BME280;12421;49.732;20.078;2023-09-30T23:50:37;97713.42;;;12.80;84.11
